Campanya Meteocatpedra
Centenari de l'SMC: 100 anys mirant el cel

Dades de l'estació automàtica Tírvia

?
?

Resum diari

23:00 TU
Dades diàries de l'estació meteorològica
Temperatura mitjana 12.2 °C
Temperatura màxima 18.5 °C 10:30 TU
Temperatura mínima 7.2 °C 5:10 TU
Humitat relativa mitjana 63%
Precipitació acumulada 0.0 mm
Ratxa màxima del vent (6 m) 29.5 km/h - 302º 11:53 TU
Pressió atmosfèrica mitjana 1020.4 hPa

El tram horari està expressat en Temps Universal (TU). Cal sumar una hora en horari d'hivern i dues en horari d'estiu per passar a l'hora oficial.

Tírvia

Metadades estació meteorològica
Municipi Tírvia
Comarca Pallars Sobirà
Altitud 954 m
Data alta 11.01.2018
Estat actual Operativa
Dades de període
Període
TU
TM
°C
TX
°C
TN
°C
HRM
%
PPT
mm
VVM (6 m)
km/h
DVM (6 m)
graus
VVX (6 m)
km/h
PM
hPa
00:00 - 00:30 9.2 9.5 9.0 81 0.0 1.8 88 (s/d) 1021.9
00:30 - 01:00 9.1 9.5 8.8 83 0.0 2.2 16 4.7 1021.6
01:00 - 01:30 9.0 9.1 8.7 84 0.0 1.1 55 4.3 1021.5
01:30 - 02:00 8.3 8.6 8.1 87 0.0 1.1 79 3.2 1021.7
02:00 - 02:30 8.1 8.4 8.0 87 0.0 0.7 348 4.0 1021.6
02:30 - 03:00 8.0 8.4 7.7 88 0.0 0.7 95 4.3 1021.6
03:00 - 03:30 8.1 8.4 7.9 86 0.0 1.4 65 6.1 1021.5
03:30 - 04:00 7.8 8.1 7.5 89 0.0 1.1 3 6.5 1021.6
04:00 - 04:30 7.5 7.7 7.3 90 0.0 0.7 89 2.9 1021.4
04:30 - 05:00 7.8 8.2 7.5 88 0.0 1.8 57 5.4 1021.5
05:00 - 05:30 7.4 7.7 7.2 91 0.0 2.2 48 4.0 1021.6
05:30 - 06:00 7.6 7.8 7.4 89 0.0 1.4 29 7.2 1021.6
06:00 - 06:30 7.8 8.1 7.4 88 0.0 1.4 82 7.2 1021.5
06:30 - 07:00 8.4 8.8 8.1 85 0.0 2.9 66 14.0 1021.2
07:00 - 07:30 8.5 9.2 7.8 86 0.0 2.2 41 11.2 1021.0
07:30 - 08:00 10.0 11.6 8.8 82 0.0 1.4 12 9.0 1020.4
08:00 - 08:30 11.7 12.8 10.7 74 0.0 1.8 356 5.4 1019.8
08:30 - 09:00 13.9 14.7 13.1 68 0.0 1.4 247 6.1 1018.9
09:00 - 09:30 15.3 16.5 14.3 60 0.0 2.9 251 9.4 1018.3
09:30 - 10:00 17.4 18.0 16.3 46 0.0 4.3 272 15.8 1017.3
10:00 - 10:30 17.9 18.4 17.4 40 0.0 4.3 86 18.7 1017.1
10:30 - 11:00 18.0 18.5 17.4 39 0.0 5.8 279 22.7 1016.8
11:00 - 11:30 17.0 17.4 16.6 38 0.0 10.8 276 25.9 1017.2
11:30 - 12:00 16.7 16.9 16.5 39 0.0 11.5 280 29.5 1017.5
12:00 - 12:30 17.1 17.3 16.7 40 0.0 8.3 283 21.2 1017.5
12:30 - 13:00 17.0 17.2 16.8 39 0.0 9.0 285 20.5 1017.3
13:00 - 13:30 16.8 17.0 16.6 38 0.0 10.1 289 25.6 1017.3
13:30 - 14:00 16.7 17.0 16.5 39 0.0 12.2 274 27.7 1017.2
14:00 - 14:30 16.4 16.5 16.1 43 0.0 11.2 284 24.5 1017.4
14:30 - 15:00 15.9 16.1 15.5 47 0.0 10.4 280 23.8 1017.6
15:00 - 15:30 15.4 15.5 15.3 49 0.0 4.3 298 18.4 1018.0
15:30 - 16:00 15.0 15.4 14.6 47 0.0 4.3 285 13.7 1018.4
16:00 - 16:30 14.4 14.6 14.4 47 0.0 6.5 262 19.4 1019.0
16:30 - 17:00 14.3 14.4 14.2 48 0.0 6.5 242 17.6 1019.2
17:00 - 17:30 14.0 14.3 13.5 51 0.0 4.7 181 15.1 1019.7
17:30 - 18:00 13.5 13.7 13.2 56 0.0 3.6 157 11.5 1020.2
18:00 - 18:30 13.5 13.7 13.3 54 0.0 4.0 217 13.3 1020.4
18:30 - 19:00 13.1 13.3 12.9 53 0.0 8.3 20 22.0 1021.0
19:00 - 19:30 12.6 13.1 12.4 54 0.0 4.3 49 20.5 1021.8
19:30 - 20:00 12.3 12.6 11.9 53 0.0 3.6 274 15.8 1022.6
20:00 - 20:30 11.9 12.2 11.6 53 0.0 4.7 360 17.6 1023.3
20:30 - 21:00 11.8 12.1 11.5 51 0.0 5.4 324 25.2 1023.6
21:00 - 21:30 11.3 11.7 10.9 53 0.0 5.0 200 9.4 1024.0
21:30 - 22:00 10.6 10.9 10.3 56 0.0 8.3 159 15.1 1024.3
22:00 - 22:30 9.9 10.3 9.4 59 0.0 7.2 147 17.6 1024.7
22:30 - 23:00 9.1 9.3 8.8 62 0.0 7.2 137 16.9 1025.0
23:00 - 23:30 8.6 8.9 8.4 63 0.0 1.8 106 5.8 1025.2

Les dades en taronja només han passat un control de qualitat automàtic. Resta pendent la seva validació definitiva.